Time;durP1;ratioP1;P1;durP2;ratioP2;P2;SDS_P1;SDS_P2;PMS_P1;PMS_P2;Temp;Humidity;BMP_temperature;BMP_pressure;BME280_temperature;BME280_humidity;BME280_pressure;Samples;Min_cycle;Max_cycle;Signal;HPM_P1;HPM_P2
2022/01/16 00:04:24;;;;;;;7.50;5.90;;;1.40;99.90;;;;;;5093738;28;20199;-68
2022/01/16 00:06:51;;;;;;;5.82;4.82;;;1.40;99.90;;;;;;5093599;28;20413;-66
2022/01/16 00:09:16;;;;;;;6.28;5.68;;;1.40;99.90;;;;;;5093480;28;20217;-67
2022/01/16 00:11:43;;;;;;;7.57;5.23;;;1.50;99.90;;;;;;5093113;28;20188;-65
2022/01/16 00:14:10;;;;;;;12.15;5.28;;;1.40;99.90;;;;;;5093749;28;20185;-65
2022/01/16 00:16:36;;;;;;;10.00;6.65;;;1.50;99.90;;;;;;5093730;28;20526;-65
2022/01/16 00:19:03;;;;;;;10.88;5.68;;;1.40;99.90;;;;;;5092322;28;20179;-66
2022/01/16 00:21:32;;;;;;;12.88;6.05;;;1.40;99.90;;;;;;5093144;28;20182;-67
2022/01/16 00:23:58;;;;;;;7.00;5.50;;;1.40;99.90;;;;;;5093445;28;20199;-65
2022/01/16 00:26:24;;;;;;;6.68;6.07;;;1.40;99.90;;;;;;5093451;28;20164;-66
2022/01/16 00:28:51;;;;;;;9.23;6.77;;;1.40;99.90;;;;;;5093240;28;20217;-67
2022/01/16 00:31:22;;;;;;;11.25;7.05;;;1.40;99.90;;;;;;5093036;28;20266;-65
2022/01/16 00:33:48;;;;;;;9.85;8.90;;;1.40;99.90;;;;;;5095803;28;20168;-67
2022/01/16 00:36:17;;;;;;;16.37;8.43;;;1.40;99.90;;;;;;5113743;28;20182;-66
2022/01/16 00:38:44;;;;;;;7.25;5.03;;;1.40;99.90;;;;;;5113706;28;20744;-65
2022/01/16 00:41:17;;;;;;;5.97;5.40;;;1.40;99.90;;;;;;5113149;28;20189;-65
2022/01/16 00:43:44;;;;;;;10.50;7.22;;;1.50;99.90;;;;;;5113693;28;20199;-68
2022/01/16 00:46:09;;;;;;;8.43;5.93;;;1.40;99.90;;;;;;5113757;28;20551;-67
2022/01/16 00:48:35;;;;;;;13.50;6.17;;;1.30;99.90;;;;;;5114010;28;20220;-68
2022/01/16 00:51:01;;;;;;;4.40;4.03;;;1.30;99.90;;;;;;5113271;28;20175;-67
2022/01/16 00:53:27;;;;;;;4.30;3.08;;;1.30;99.90;;;;;;5113241;28;20425;-64
2022/01/16 00:55:53;;;;;;;6.70;5.63;;;1.40;99.90;;;;;;5113656;28;20183;-64
2022/01/16 00:58:18;;;;;;;9.00;5.50;;;1.40;99.90;;;;;;5113656;28;20405;-65
2022/01/16 01:00:44;;;;;;;13.00;6.93;;;1.40;99.90;;;;;;5113795;28;20164;-64
2022/01/16 01:03:11;;;;;;;6.40;5.63;;;1.30;99.90;;;;;;5116469;28;20348;-66
2022/01/16 01:05:37;;;;;;;7.97;6.10;;;1.30;99.90;;;;;;5117331;28;20175;-66
2022/01/16 01:08:04;;;;;;;6.28;5.45;;;1.20;99.90;;;;;;5117254;28;20167;-67
2022/01/16 01:10:34;;;;;;;15.02;5.25;;;1.20;99.90;;;;;;5117116;28;20170;-65
2022/01/16 01:13:12;;;;;;;8.50;4.55;;;1.20;99.90;;;;;;5116599;28;20199;-65
2022/01/16 01:15:47;;;;;;;5.45;4.30;;;1.20;99.90;;;;;;5117337;28;20175;-66
2022/01/16 01:18:14;;;;;;;6.90;5.10;;;1.30;99.90;;;;;;5117147;28;20232;-67
2022/01/16 01:20:42;;;;;;;3.30;2.95;;;1.40;99.90;;;;;;5117097;27;20525;-66
2022/01/16 01:23:09;;;;;;;6.82;6.22;;;1.30;99.90;;;;;;5116364;28;20199;-65
2022/01/16 01:25:35;;;;;;;11.23;5.28;;;1.30;99.90;;;;;;5117073;28;20159;-64
2022/01/16 01:28:02;;;;;;;5.03;4.15;;;1.20;99.90;;;;;;5116859;28;20551;-66
2022/01/16 01:30:28;;;;;;;11.60;6.10;;;1.10;99.90;;;;;;5116812;28;20168;-65
2022/01/16 01:32:55;;;;;;;5.93;4.40;;;1.10;99.90;;;;;;5116280;28;20684;-63
2022/01/16 01:35:22;;;;;;;6.95;5.00;;;1.00;99.90;;;;;;5099701;28;20626;-67
2022/01/16 01:37:48;;;;;;;8.88;6.40;;;1.00;99.90;;;;;;5096426;28;20290;-68
2022/01/16 01:40:18;;;;;;;7.03;4.70;;;1.00;99.90;;;;;;5094971;28;20173;-67
2022/01/16 01:43:04;;;;;;;9.55;5.93;;;1.00;99.90;;;;;;5095649;28;20200;-66
2022/01/16 01:51:07;;;;;;;9.07;6.05;;;1.10;99.90;;;;;;5096097;28;20531;-68
2022/01/16 01:53:34;;;;;;;6.53;4.53;;;1.20;99.90;;;;;;5095843;28;20223;-65
2022/01/16 01:56:00;;;;;;;9.48;7.13;;;1.20;99.90;;;;;;5096024;28;20191;-65
2022/01/16 01:58:26;;;;;;;12.53;5.57;;;1.20;99.90;;;;;;5096039;28;20657;-65
2022/01/16 02:00:52;;;;;;;8.10;5.00;;;1.20;99.90;;;;;;5096462;28;20424;-67
2022/01/16 02:03:31;;;;;;;14.47;5.40;;;1.20;99.90;;;;;;5095123;28;20208;-66
2022/01/16 02:05:57;;;;;;;5.10;4.68;;;1.20;99.90;;;;;;5095972;28;20243;-66
2022/01/16 02:08:23;;;;;;;9.30;5.10;;;1.20;99.90;;;;;;5095832;28;20210;-68
2022/01/16 02:10:50;;;;;;;5.93;4.95;;;1.10;99.90;;;;;;5095508;28;20425;-65
2022/01/16 02:13:45;;;;;;;4.95;4.45;;;1.00;99.90;;;;;;5094666;28;20196;-67
2022/01/16 02:34:34;;;;;;;7.20;5.07;;;1.00;99.90;;;;;;5104051;28;20179;-67
2022/01/16 02:37:07;;;;;;;3.63;3.33;;;1.10;99.90;;;;;;5115466;28;20536;-66
2022/01/16 02:39:36;;;;;;;7.68;5.78;;;1.00;99.90;;;;;;5115706;28;20506;-68
2022/01/16 02:42:06;;;;;;;11.90;5.45;;;1.00;99.90;;;;;;5115554;28;20229;-64
2022/01/16 02:44:45;;;;;;;15.07;6.10;;;1.10;99.90;;;;;;5115232;28;20199;-65
2022/01/16 02:47:13;;;;;;;7.90;4.45;;;1.10;99.90;;;;;;5115339;28;20212;-64
2022/01/16 02:49:41;;;;;;;6.28;5.28;;;1.10;99.90;;;;;;5115414;28;20165;-64
2022/01/16 02:52:09;;;;;;;5.47;4.93;;;1.00;99.90;;;;;;5114795;28;20242;-67
2022/01/16 02:54:38;;;;;;;11.90;8.93;;;1.00;99.90;;;;;;5115291;27;20172;-64
2022/01/16 02:57:06;;;;;;;7.05;5.65;;;1.10;99.90;;;;;;5115220;28;20176;-64
2022/01/16 02:59:33;;;;;;;12.60;6.25;;;1.20;99.90;;;;;;5114929;28;20210;-65
2022/01/16 03:02:00;;;;;;;12.32;6.45;;;1.20;99.90;;;;;;5114531;28;20698;-66
2022/01/16 03:04:27;;;;;;;9.25;5.72;;;1.10;99.90;;;;;;5115115;28;20230;-66
2022/01/16 03:06:53;;;;;;;10.35;6.72;;;1.10;99.90;;;;;;5114798;28;20167;-65
2022/01/16 03:09:19;;;;;;;8.27;4.70;;;1.10;99.90;;;;;;5114848;28;20191;-64
2022/01/16 03:11:48;;;;;;;14.40;6.75;;;1.10;99.90;;;;;;5114367;28;20828;-65
2022/01/16 03:14:18;;;;;;;9.70;6.32;;;1.20;99.90;;;;;;5114698;27;20250;-65
2022/01/16 03:16:48;;;;;;;7.93;5.60;;;1.30;99.90;;;;;;5114797;28;20698;-66
2022/01/16 03:22:03;;;;;;;14.30;8.70;;;1.20;99.90;;;;;;5114421;28;20202;-65
2022/01/16 03:24:37;;;;;;;9.32;7.22;;;1.20;99.90;;;;;;5113805;28;20207;-64
2022/01/16 03:27:15;;;;;;;12.95;7.57;;;1.20;99.90;;;;;;5114377;28;20159;-67
2022/01/16 03:29:44;;;;;;;16.63;8.65;;;1.10;99.90;;;;;;5114477;28;20181;-67
2022/01/16 03:32:13;;;;;;;11.10;6.53;;;1.10;99.90;;;;;;5114057;28;20205;-65
2022/01/16 03:34:39;;;;;;;14.50;10.10;;;1.10;99.90;;;;;;5103617;28;20221;-65
2022/01/16 03:37:05;;;;;;;9.83;6.97;;;1.10;99.90;;;;;;5092715;28;20630;-66
2022/01/16 03:39:31;;;;;;;15.63;8.98;;;1.10;99.90;;;;;;5093897;28;20172;-67
2022/01/16 03:41:59;;;;;;;17.50;9.30;;;1.10;99.90;;;;;;5093475;28;20195;-68
2022/01/16 03:44:25;;;;;;;8.88;5.97;;;1.20;99.90;;;;;;5093769;28;20195;-67
2022/01/16 03:46:51;;;;;;;12.83;6.87;;;1.10;99.90;;;;;;5092456;28;20587;-65
2022/01/16 03:49:23;;;;;;;10.20;6.60;;;1.20;99.90;;;;;;5093719;28;20694;-65
2022/01/16 03:51:51;;;;;;;9.25;6.63;;;1.30;99.90;;;;;;5093382;28;20199;-68
2022/01/16 03:54:21;;;;;;;19.77;6.93;;;1.20;99.90;;;;;;5093622;28;20623;-67
2022/01/16 03:56:47;;;;;;;13.35;7.72;;;1.20;99.90;;;;;;5093423;28;20168;-67
2022/01/16 03:59:13;;;;;;;12.87;8.70;;;1.20;99.90;;;;;;5093769;28;20198;-65
2022/01/16 04:01:39;;;;;;;11.40;7.57;;;1.10;99.90;;;;;;5093074;28;20430;-67
2022/01/16 04:04:05;;;;;;;14.15;5.95;;;1.10;99.90;;;;;;5093532;28;20196;-66
2022/01/16 04:06:31;;;;;;;14.27;8.63;;;1.10;99.90;;;;;;5093415;28;20175;-66
2022/01/16 04:08:57;;;;;;;13.73;6.25;;;1.10;99.90;;;;;;5093596;28;20406;-68
2022/01/16 04:11:25;;;;;;;11.80;8.53;;;1.10;99.90;;;;;;5092796;28;20309;-66
2022/01/16 04:13:53;;;;;;;14.40;7.28;;;1.00;99.90;;;;;;5093295;28;20267;-68
2022/01/16 04:16:21;;;;;;;9.85;8.65;;;1.00;99.90;;;;;;5092261;28;20179;-65
2022/01/16 04:18:51;;;;;;;10.07;8.48;;;1.00;99.90;;;;;;5093414;28;20526;-65
2022/01/16 04:21:23;;;;;;;12.40;7.47;;;1.00;99.90;;;;;;5093048;28;20630;-66
2022/01/16 04:23:49;;;;;;;11.80;6.75;;;1.00;99.90;;;;;;5093345;28;20274;-63
2022/01/16 04:26:17;;;;;;;11.27;8.55;;;1.00;99.90;;;;;;5093229;28;20179;-63
2022/01/16 04:28:42;;;;;;;11.70;5.22;;;1.00;99.90;;;;;;5093452;28;20194;-64
2022/01/16 04:31:09;;;;;;;18.07;8.90;;;1.00;99.90;;;;;;5092856;28;20503;-63
2022/01/16 04:33:35;;;;;;;7.68;4.97;;;1.00;99.90;;;;;;5094930;28;20934;-66
2022/01/16 04:36:01;;;;;;;9.27;7.28;;;1.00;99.90;;;;;;5115710;28;20185;-65
2022/01/16 04:38:27;;;;;;;7.43;6.77;;;0.90;99.90;;;;;;5117725;28;20163;-67
2022/01/16 04:43:51;;;;;;;19.02;5.57;;;0.90;99.90;;;;;;5117666;28;20475;-65
2022/01/16 04:46:22;;;;;;;10.55;7.72;;;1.00;99.90;;;;;;5117573;28;20220;-66
2022/01/16 04:48:48;;;;;;;14.50;8.93;;;0.90;99.90;;;;;;5117705;28;20171;-63
2022/01/16 04:51:15;;;;;;;12.88;7.78;;;0.90;99.90;;;;;;5116157;28;20167;-67
2022/01/16 04:53:41;;;;;;;11.05;8.43;;;0.80;99.90;;;;;;5117605;28;20622;-66
2022/01/16 04:56:07;;;;;;;9.70;6.35;;;0.90;99.90;;;;;;5117422;28;20556;-66
2022/01/16 04:58:35;;;;;;;9.47;5.70;;;0.90;99.90;;;;;;5117450;28;20224;-65
2022/01/16 05:01:01;;;;;;;10.00;6.03;;;0.90;99.90;;;;;;5117207;28;20436;-67
2022/01/16 05:03:28;;;;;;;9.30;6.57;;;0.90;99.90;;;;;;5116927;28;20207;-66
2022/01/16 05:05:55;;;;;;;12.18;7.35;;;0.90;99.90;;;;;;5117309;28;20174;-65
2022/01/16 05:08:21;;;;;;;9.70;8.00;;;0.90;99.90;;;;;;5117138;28;20163;-65
2022/01/16 05:10:47;;;;;;;8.77;7.10;;;0.90;99.90;;;;;;5117146;28;20555;-66
2022/01/16 05:16:35;;;;;;;7.85;6.97;;;0.80;99.90;;;;;;5116839;28;20199;-66
2022/01/16 05:18:46;;;;;;;7.88;7.00;;;0.80;99.90;;;;;;5117249;28;20182;-67
2022/01/16 05:21:12;;;;;;;5.83;5.43;;;0.80;99.90;;;;;;5116942;28;20172;-66
2022/01/16 05:23:38;;;;;;;6.87;5.20;;;0.90;99.90;;;;;;5116954;28;20215;-66
2022/01/16 05:26:05;;;;;;;7.90;4.47;;;0.90;99.90;;;;;;5117129;28;20171;-65
2022/01/16 05:28:31;;;;;;;12.45;7.47;;;0.90;99.90;;;;;;5116807;28;20520;-67
2022/01/16 05:30:57;;;;;;;12.15;7.15;;;0.90;99.90;;;;;;5116710;28;20170;-65
2022/01/16 05:33:23;;;;;;;11.77;9.27;;;0.90;99.90;;;;;;5116204;28;20202;-65
2022/01/16 05:35:49;;;;;;;9.60;8.77;;;0.90;99.90;;;;;;5096304;28;20191;-68
2022/01/16 05:38:15;;;;;;;10.27;6.90;;;1.00;99.90;;;;;;5096474;28;20207;-66
2022/01/16 05:40:41;;;;;;;8.13;7.33;;;1.00;99.90;;;;;;5096184;28;20656;-64
2022/01/16 05:43:07;;;;;;;10.13;6.57;;;0.90;99.90;;;;;;5095453;28;20292;-65
2022/01/16 05:45:33;;;;;;;7.75;5.97;;;0.90;99.90;;;;;;5096518;28;20871;-66
2022/01/16 05:47:59;;;;;;;13.87;7.70;;;0.80;99.90;;;;;;5095410;28;20172;-66
2022/01/16 05:50:26;;;;;;;7.50;6.38;;;0.70;99.90;;;;;;5094911;28;20195;-67
2022/01/16 05:52:52;;;;;;;7.05;6.30;;;0.70;99.90;;;;;;5095485;28;20202;-67
2022/01/16 05:55:19;;;;;;;5.87;4.50;;;0.70;99.90;;;;;;5095904;28;20175;-65
2022/01/16 05:57:45;;;;;;;10.38;7.15;;;0.60;99.90;;;;;;5095963;28;20406;-66
2022/01/16 06:00:13;;;;;;;10.30;6.78;;;0.60;99.90;;;;;;5094541;28;20195;-64
2022/01/16 06:02:40;;;;;;;11.00;7.28;;;0.60;99.90;;;;;;5095076;28;20209;-66
2022/01/16 06:05:07;;;;;;;10.52;5.93;;;0.60;99.90;;;;;;5094450;28;20659;-65
2022/01/16 06:07:33;;;;;;;7.05;5.20;;;0.60;99.90;;;;;;5095764;28;20203;-65
2022/01/16 06:09:59;;;;;;;9.43;4.38;;;0.60;99.90;;;;;;5095817;28;20617;-66
2022/01/16 06:12:24;;;;;;;5.57;4.50;;;0.50;99.90;;;;;;5095053;28;20244;-64
2022/01/16 06:14:50;;;;;;;6.93;5.37;;;0.50;99.90;;;;;;5095643;28;20230;-65
2022/01/16 06:17:16;;;;;;;6.87;6.17;;;0.50;99.90;;;;;;5099166;28;20223;-66
2022/01/16 06:19:41;;;;;;;5.07;4.57;;;0.50;99.90;;;;;;5106664;28;20971;-65
2022/01/16 06:22:07;;;;;;;9.83;6.53;;;0.50;99.90;;;;;;5115691;28;20206;-67
2022/01/16 06:24:33;;;;;;;13.20;7.33;;;0.50;99.90;;;;;;5115548;28;20667;-65
2022/01/16 06:26:59;;;;;;;9.40;7.13;;;0.50;99.90;;;;;;5115624;28;20167;-65
2022/01/16 06:29:25;;;;;;;7.73;5.57;;;0.50;99.90;;;;;;5115856;28;20171;-65
2022/01/16 06:31:51;;;;;;;7.63;4.90;;;0.50;99.90;;;;;;5115168;28;20215;-65
2022/01/16 06:34:17;;;;;;;14.67;6.93;;;0.50;99.90;;;;;;5115561;28;20256;-67
2022/01/16 06:36:42;;;;;;;9.93;6.82;;;0.50;99.90;;;;;;5115534;28;20186;-68
2022/01/16 06:39:10;;;;;;;15.93;6.23;;;0.50;99.90;;;;;;5115698;28;20164;-64
2022/01/16 06:41:37;;;;;;;6.05;5.50;;;0.50;99.90;;;;;;5114967;28;20183;-68
2022/01/16 06:44:03;;;;;;;7.90;7.10;;;0.50;99.90;;;;;;5115473;28;20199;-66
2022/01/16 06:46:29;;;;;;;9.15;6.50;;;0.50;99.90;;;;;;5115387;28;20198;-67
2022/01/16 06:48:55;;;;;;;4.37;4.07;;;0.40;99.90;;;;;;5115272;28;20159;-65
2022/01/16 06:51:22;;;;;;;7.20;6.13;;;0.30;99.90;;;;;;5114546;28;20488;-65
2022/01/16 06:53:48;;;;;;;7.53;4.05;;;0.30;99.90;;;;;;5115273;28;20228;-66
2022/01/16 06:56:16;;;;;;;10.45;6.28;;;0.30;99.90;;;;;;5115173;28;20163;-67
2022/01/16 06:58:43;;;;;;;15.02;6.65;;;0.30;99.90;;;;;;5114997;28;20171;-66
2022/01/16 07:01:09;;;;;;;10.27;6.05;;;0.20;99.90;;;;;;5114641;28;20635;-65
2022/01/16 07:03:35;;;;;;;5.95;5.35;;;0.20;99.90;;;;;;5114671;28;20267;-63
2022/01/16 07:06:02;;;;;;;8.55;7.15;;;0.20;99.90;;;;;;5115076;28;20178;-65
2022/01/16 07:08:28;;;;;;;6.15;5.15;;;0.20;99.90;;;;;;5114707;28;20529;-64
2022/01/16 07:10:56;;;;;;;5.60;4.10;;;0.20;99.90;;;;;;5115031;28;20177;-65
2022/01/16 07:13:25;;;;;;;7.07;5.20;;;0.10;99.90;;;;;;5114201;28;20429;-66
2022/01/16 07:15:51;;;;;;;10.50;6.32;;;0.20;99.90;;;;;;5113493;28;20171;-68
2022/01/16 07:18:17;;;;;;;8.60;4.67;;;0.20;99.90;;;;;;5113996;28;20594;-68
2022/01/16 07:20:44;;;;;;;7.00;5.25;;;0.20;99.90;;;;;;5101690;28;20761;-68
2022/01/16 07:23:11;;;;;;;5.18;4.15;;;0.20;99.90;;;;;;5093269;28;20199;-68
2022/01/16 07:25:37;;;;;;;5.05;4.72;;;0.10;99.90;;;;;;5094339;28;20254;-66
2022/01/16 07:28:03;;;;;;;7.70;5.47;;;0.10;99.90;;;;;;5093953;28;20190;-67
2022/01/16 07:30:29;;;;;;;9.98;7.70;;;0.10;99.90;;;;;;5094255;28;20198;-70
2022/01/16 07:32:55;;;;;;;15.82;7.97;;;0.10;99.90;;;;;;5093636;28;20191;-68
2022/01/16 07:35:21;;;;;;;5.87;5.27;;;0.10;99.90;;;;;;5094134;28;20168;-70
2022/01/16 07:37:47;;;;;;;7.90;6.10;;;0.10;99.90;;;;;;5093957;28;20175;-68
2022/01/16 07:40:14;;;;;;;9.07;6.50;;;0.10;99.90;;;;;;5092713;28;20418;-70
2022/01/16 07:42:39;;;;;;;6.20;4.70;;;0.10;99.90;;;;;;5093524;28;20183;-70
2022/01/16 07:45:06;;;;;;;7.40;6.67;;;0.10;99.90;;;;;;5093971;28;20622;-72
2022/01/16 07:47:32;;;;;;;11.00;7.13;;;0.10;99.90;;;;;;5093897;28;20406;-70
2022/01/16 07:49:58;;;;;;;7.63;6.83;;;0.10;99.90;;;;;;5093946;28;20182;-71
2022/01/16 07:52:23;;;;;;;10.38;5.45;;;0.10;99.90;;;;;;5093473;28;20558;-69
2022/01/16 07:54:49;;;;;;;7.90;5.83;;;0.40;99.90;;;;;;5093929;28;20175;-68
2022/01/16 07:57:15;;;;;;;13.30;10.10;;;0.50;99.90;;;;;;5103555;28;20417;-70
2022/01/16 07:59:41;;;;;;;8.03;6.73;;;0.70;99.90;;;;;;5113983;28;20712;-63
2022/01/16 08:02:07;;;;;;;3.90;3.60;;;0.90;99.90;;;;;;5112980;28;20230;-67
2022/01/16 08:04:33;;;;;;;7.03;5.63;;;1.00;99.90;;;;;;5105680;28;20196;-67
2022/01/16 08:06:58;;;;;;;12.90;7.13;;;0.90;99.90;;;;;;5093725;28;20601;-66
2022/01/16 08:09:24;;;;;;;13.47;8.70;;;0.80;99.90;;;;;;5093674;28;20164;-68
2022/01/16 08:11:50;;;;;;;6.37;4.40;;;0.70;99.90;;;;;;5098726;28;20183;-69
2022/01/16 08:14:16;;;;;;;7.50;5.67;;;0.60;99.90;;;;;;5113742;28;20197;-66
2022/01/16 08:16:41;;;;;;;8.13;5.67;;;0.60;99.90;;;;;;5113859;28;20417;-65
2022/01/16 08:19:07;;;;;;;12.97;6.77;;;0.60;99.90;;;;;;5113536;28;20681;-68
2022/01/16 08:21:33;;;;;;;10.43;5.90;;;0.60;99.90;;;;;;5112962;28;20167;-67
2022/01/16 08:23:58;;;;;;;8.50;5.33;;;0.60;99.90;;;;;;5112449;28;20668;-65
2022/01/16 08:26:24;;;;;;;7.33;6.47;;;0.60;99.90;;;;;;5113621;28;20171;-65
2022/01/16 08:28:50;;;;;;;10.67;8.13;;;0.70;99.90;;;;;;5113732;28;20171;-64
2022/01/16 08:31:15;;;;;;;7.20;5.40;;;0.70;99.90;;;;;;5113370;28;20171;-65
2022/01/16 08:33:41;;;;;;;4.43;4.17;;;0.80;99.90;;;;;;5113386;28;20564;-65
2022/01/16 08:36:07;;;;;;;9.20;6.07;;;0.90;99.90;;;;;;5113465;28;20659;-64
2022/01/16 08:38:33;;;;;;;7.47;5.87;;;1.00;99.90;;;;;;5113619;28;20174;-66
2022/01/16 08:41:01;;;;;;;9.85;7.35;;;1.00;99.90;;;;;;5113726;28;20554;-67
2022/01/16 08:43:29;;;;;;;11.32;6.50;;;1.10;99.90;;;;;;5113290;28;20206;-65
2022/01/16 08:45:55;;;;;;;7.25;6.63;;;1.10;99.90;;;;;;5113742;28;20247;-65
2022/01/16 08:48:21;;;;;;;11.20;9.98;;;1.10;99.90;;;;;;5112077;28;20171;-66
2022/01/16 08:50:47;;;;;;;9.88;7.38;;;1.10;99.90;;;;;;5112998;28;20178;-65
2022/01/16 08:53:12;;;;;;;8.82;8.02;;;1.10;99.90;;;;;;5112990;28;20265;-64
2022/01/16 08:55:40;;;;;;;12.80;8.93;;;1.10;99.90;;;;;;5112570;28;20270;-70
2022/01/16 08:58:05;;;;;;;9.55;7.32;;;1.20;99.90;;;;;;5111843;28;20236;-66
2022/01/16 09:00:32;;;;;;;14.13;6.13;;;1.30;99.90;;;;;;5113267;28;20168;-65
2022/01/16 09:02:58;;;;;;;16.75;9.48;;;1.30;99.90;;;;;;5112698;28;20626;-65
2022/01/16 09:05:25;;;;;;;7.13;6.43;;;1.30;99.90;;;;;;5113388;28;20260;-65
2022/01/16 09:07:51;;;;;;;14.63;9.18;;;1.30;99.90;;;;;;5113479;28;20175;-66
2022/01/16 09:10:16;;;;;;;13.23;7.50;;;1.40;99.90;;;;;;5113281;28;20691;-71
2022/01/16 09:12:42;;;;;;;6.97;5.53;;;1.30;99.90;;;;;;5111346;28;20192;-66
2022/01/16 09:15:10;;;;;;;20.95;7.53;;;1.20;99.90;;;;;;5114423;28;20491;-66
2022/01/16 09:17:36;;;;;;;10.18;8.20;;;1.20;99.90;;;;;;5113113;28;20166;-67
2022/01/16 09:20:03;;;;;;;8.68;7.90;;;1.20;99.90;;;;;;5113120;28;20187;-66
2022/01/16 09:22:29;;;;;;;17.85;8.10;;;1.20;99.90;;;;;;5113649;28;20187;-65
2022/01/16 09:24:55;;;;;;;8.93;6.20;;;1.10;99.90;;;;;;5116825;28;20661;-67
2022/01/16 09:27:20;;;;;;;10.07;9.00;;;1.10;99.90;;;;;;5116778;28;20178;-69
2022/01/16 09:29:46;;;;;;;12.20;9.30;;;1.20;99.90;;;;;;5116742;28;20163;-66
2022/01/16 09:32:16;;;;;;;11.10;8.13;;;1.20;99.90;;;;;;5116217;28;20195;-66
2022/01/16 09:34:43;;;;;;;13.60;9.50;;;1.20;99.90;;;;;;5106547;28;20908;-65
2022/01/16 09:37:09;;;;;;;14.82;10.02;;;1.20;99.90;;;;;;5116641;28;20541;-65
2022/01/16 09:39:36;;;;;;;14.35;7.93;;;1.20;99.90;;;;;;5117023;28;20262;-64
2022/01/16 09:42:03;;;;;;;11.00;8.05;;;1.30;99.90;;;;;;5115748;28;20194;-63
2022/01/16 09:44:30;;;;;;;13.73;7.50;;;1.40;99.90;;;;;;5116051;28;20203;-65
2022/01/16 09:46:57;;;;;;;16.00;9.55;;;1.40;99.90;;;;;;5116211;28;20189;-68
2022/01/16 09:49:23;;;;;;;12.02;8.70;;;1.50;99.90;;;;;;5116296;28;20168;-63
2022/01/16 09:51:52;;;;;;;13.80;8.77;;;1.60;99.90;;;;;;5115767;28;20175;-66
2022/01/16 09:54:20;;;;;;;10.63;7.05;;;1.70;99.90;;;;;;5116129;27;20428;-67
2022/01/16 09:56:46;;;;;;;8.60;6.80;;;1.80;99.90;;;;;;5116051;28;20174;-63
2022/01/16 09:59:11;;;;;;;8.50;7.70;;;1.80;99.90;;;;;;5116333;28;20180;-63
2022/01/16 10:01:38;;;;;;;7.40;6.43;;;1.90;99.90;;;;;;5115434;28;20211;-64
2022/01/16 10:04:04;;;;;;;14.48;7.90;;;1.90;99.90;;;;;;5115562;28;20974;-65
2022/01/16 10:06:29;;;;;;;17.87;10.83;;;2.00;99.90;;;;;;5115806;28;20171;-66
2022/01/16 10:08:55;;;;;;;19.53;6.87;;;2.10;99.90;;;;;;5115755;28;20240;-65
2022/01/16 10:11:22;;;;;;;14.68;8.18;;;2.10;99.90;;;;;;5115394;28;20512;-64
2022/01/16 10:14:09;;;;;;;10.25;8.60;;;2.10;99.90;;;;;;5107349;27;20187;-66
2022/01/16 10:16:40;;;;;;;9.27;8.38;;;2.10;99.90;;;;;;5095334;28;20172;-65
2022/01/16 10:19:22;;;;;;;11.07;7.75;;;2.20;99.90;;;;;;5114285;28;20175;-64
2022/01/16 10:21:49;;;;;;;14.00;10.82;;;2.20;99.90;;;;;;5114521;28;20410;-64
2022/01/16 10:24:15;;;;;;;14.50;9.98;;;2.30;99.90;;;;;;5115611;28;20639;-65
2022/01/16 10:26:41;;;;;;;24.10;11.07;;;2.40;99.90;;;;;;5115352;28;20677;-64
2022/01/16 10:29:08;;;;;;;24.17;11.50;;;2.50;99.90;;;;;;5115672;28;20262;-66
2022/01/16 10:31:33;;;;;;;16.75;11.30;;;2.60;99.90;;;;;;5115135;28;20413;-68
2022/01/16 10:33:59;;;;;;;13.00;6.37;;;2.60;99.90;;;;;;5114902;28;20171;-67
2022/01/16 10:36:37;;;;;;;14.67;9.10;;;2.70;99.90;;;;;;5115339;28;20199;-66
2022/01/16 10:39:06;;;;;;;25.52;9.82;;;2.70;99.90;;;;;;5114032;28;20168;-67
2022/01/16 10:41:32;;;;;;;13.90;9.82;;;2.80;99.90;;;;;;5115099;28;20194;-65
2022/01/16 10:43:57;;;;;;;17.23;8.33;;;2.90;99.90;;;;;;5115627;28;20196;-66
2022/01/16 10:46:26;;;;;;;14.33;8.30;;;3.00;99.90;;;;;;5115819;28;20163;-66
2022/01/16 10:49:18;;;;;;;14.35;9.48;;;3.10;99.90;;;;;;5115716;28;20160;-67
2022/01/16 10:52:07;;;;;;;17.25;9.52;;;3.20;99.90;;;;;;5115163;28;20194;-65
2022/01/16 10:54:38;;;;;;;12.82;6.60;;;3.20;99.90;;;;;;5115957;28;20521;-64
2022/01/16 10:57:40;;;;;;;14.88;11.50;;;3.10;99.90;;;;;;5106917;28;20167;-65
2022/01/16 11:00:11;;;;;;;11.93;8.25;;;3.10;99.90;;;;;;5071665;28;20334;-65
2022/01/16 11:02:38;;;;;;;16.23;10.10;;;3.20;99.90;;;;;;5090586;28;20226;-64
2022/01/16 11:05:18;;;;;;;12.65;10.40;;;3.30;99.90;;;;;;5113974;28;20215;-63
2022/01/16 11:07:45;;;;;;;16.75;8.55;;;3.30;99.90;;;;;;5115057;28;20179;-64
2022/01/16 11:10:29;;;;;;;12.05;9.07;;;3.30;99.90;;;;;;5114847;28;20567;-65
2022/01/16 11:13:00;;;;;;;14.05;8.13;;;3.30;99.90;;;;;;5114608;27;20209;-63
2022/01/16 11:15:27;;;;;;;16.02;10.75;;;3.30;99.90;;;;;;5114731;28;20168;-63
2022/01/16 11:17:53;;;;;;;20.38;10.65;;;3.40;99.90;;;;;;5113971;27;20262;-63
2022/01/16 11:20:26;;;;;;;9.47;7.33;;;3.50;99.90;;;;;;5112571;28;20337;-65
2022/01/16 11:22:58;;;;;;;17.17;8.48;;;3.50;99.90;;;;;;5113293;28;20436;-62
2022/01/16 11:25:31;;;;;;;14.52;10.20;;;3.60;99.90;;;;;;5114444;28;20538;-63
2022/01/16 11:28:12;;;;;;;16.20;9.27;;;3.80;99.90;;;;;;5114525;28;20228;-63
2022/01/16 11:30:49;;;;;;;20.65;9.00;;;3.90;99.90;;;;;;5113762;28;20179;-63
2022/01/16 11:33:16;;;;;;;14.15;9.57;;;4.10;99.90;;;;;;5113964;28;20192;-63
2022/01/16 11:35:52;;;;;;;10.68;8.07;;;4.30;99.90;;;;;;5114478;28;20563;-63
2022/01/16 11:38:22;;;;;;;17.27;9.75;;;4.30;99.90;;;;;;5114413;28;20204;-64
2022/01/16 11:40:49;;;;;;;11.48;7.95;;;4.40;99.90;;;;;;5114307;28;20167;-63
2022/01/16 11:43:25;;;;;;;13.15;10.55;;;4.40;99.90;;;;;;5114475;28;20195;-70
2022/01/16 11:45:52;;;;;;;15.27;9.57;;;4.30;99.90;;;;;;5114420;28;20209;-73
2022/01/16 11:48:35;;;;;;;11.98;8.35;;;4.20;99.90;;;;;;5114122;28;20188;-69
2022/01/16 11:51:03;;;;;;;13.25;10.65;;;4.10;99.90;;;;;;5114062;28;20637;-70
2022/01/16 11:54:06;;;;;;;14.30;10.32;;;4.00;99.90;;;;;;5113913;28;20196;-71
2022/01/16 11:56:37;;;;;;;12.82;8.50;;;3.90;99.90;;;;;;5113229;28;20172;-71
2022/01/16 11:59:15;;;;;;;14.73;10.45;;;3.80;99.90;;;;;;5112513;28;20243;-73
2022/01/16 12:01:49;;;;;;;13.45;8.13;;;3.70;99.90;;;;;;5111900;28;20552;-73
2022/01/16 12:04:30;;;;;;;17.33;9.43;;;3.60;99.90;;;;;;5113656;28;20701;-73
2022/01/16 12:07:19;;;;;;;11.52;8.65;;;3.60;99.90;;;;;;5112989;28;20669;-71
2022/01/16 12:12:14;;;;;;;18.43;9.93;;;3.50;99.90;;;;;;5112277;28;20199;-73
2022/01/16 12:15:00;;;;;;;23.50;7.72;;;3.50;99.90;;;;;;5113062;28;20175;-71
2022/01/16 12:17:42;;;;;;;13.07;8.90;;;3.60;99.90;;;;;;5111918;28;20167;-71
2022/01/16 12:20:20;;;;;;;11.55;8.45;;;3.60;99.90;;;;;;5114174;28;20250;-72
2022/01/16 12:22:47;;;;;;;11.73;8.98;;;3.70;99.90;;;;;;5114164;28;20183;-70
2022/01/16 12:25:21;;;;;;;15.55;9.30;;;3.80;99.90;;;;;;5112979;28;20182;-71
2022/01/16 12:27:47;;;;;;;13.10;5.45;;;4.00;99.90;;;;;;5114385;28;20197;-71
2022/01/16 12:30:14;;;;;;;15.07;7.67;;;4.10;99.90;;;;;;5114312;28;20523;-70
2022/01/16 12:32:50;;;;;;;17.73;7.47;;;4.30;99.90;;;;;;5113984;28;20190;-72
2022/01/16 12:35:35;;;;;;;8.73;7.18;;;4.40;99.90;;;;;;5098282;28;20168;-73
2022/01/16 12:38:09;;;;;;;10.93;7.00;;;4.50;99.90;;;;;;5093477;28;20181;-72
2022/01/16 12:40:37;;;;;;;13.00;6.85;;;4.50;99.90;;;;;;5093283;28;20175;-71
2022/01/16 12:43:05;;;;;;;12.73;6.80;;;4.50;99.90;;;;;;5091439;28;20192;-71
2022/01/16 12:45:41;;;;;;;12.00;7.80;;;4.50;99.90;;;;;;5093198;28;20167;-71
2022/01/16 12:48:07;;;;;;;9.38;7.85;;;4.40;99.90;;;;;;5093179;28;20167;-72
2022/01/16 12:50:34;;;;;;;13.18;7.45;;;4.40;99.90;;;;;;5092947;28;20222;-72
2022/01/16 12:53:00;;;;;;;13.05;9.32;;;4.40;99.90;;;;;;5092805;28;20184;-71
2022/01/16 12:55:31;;;;;;;8.23;6.82;;;4.40;99.90;;;;;;5093450;28;20582;-70
2022/01/16 12:58:17;;;;;;;9.50;5.80;;;4.50;99.90;;;;;;5096733;28;20525;-71
2022/01/16 13:00:59;;;;;;;12.18;7.40;;;4.50;99.90;;;;;;5097191;28;20171;-73
2022/01/16 13:03:29;;;;;;;11.07;7.45;;;4.60;99.90;;;;;;5095495;28;20565;-71
2022/01/16 13:06:34;;;;;;;7.30;6.25;;;4.70;99.90;;;;;;5097081;28;20171;-71
2022/01/16 13:09:09;;;;;;;10.50;7.93;;;4.70;99.90;;;;;;5034791;28;20269;-72
2022/01/16 13:11:41;;;;;;;9.10;6.65;;;4.80;99.90;;;;;;5034572;28;20177;-73
2022/01/16 13:14:09;;;;;;;7.95;6.35;;;4.80;99.90;;;;;;5034598;28;20654;-73
2022/01/16 13:16:37;;;;;;;13.65;7.22;;;4.80;99.90;;;;;;5034751;28;20194;-71
2022/01/16 13:19:08;;;;;;;6.05;3.95;;;4.80;99.90;;;;;;5034828;28;20206;-73
2022/01/16 13:24:44;;;;;;;7.97;5.50;;;4.70;99.90;;;;;;5034358;28;20213;-72
2022/01/16 13:27:18;;;;;;;13.48;6.35;;;4.80;99.90;;;;;;5034690;28;20557;-73
2022/01/16 13:29:48;;;;;;;7.90;5.55;;;4.80;99.90;;;;;;5034626;28;20256;-72
2022/01/16 13:32:17;;;;;;;6.53;5.05;;;4.80;99.90;;;;;;5033852;28;20190;-72
2022/01/16 13:34:46;;;;;;;6.30;4.05;;;4.80;99.90;;;;;;5045664;28;20176;-73
2022/01/16 13:37:25;;;;;;;11.48;5.18;;;4.80;99.90;;;;;;5037350;28;20724;-72
2022/01/16 13:40:01;;;;;;;8.30;5.65;;;4.80;99.90;;;;;;5077741;28;20180;-71